Time;durP1;ratioP1;P1;durP2;ratioP2;P2;SDS_P1;SDS_P2;PMS_P1;PMS_P2;Temp;Humidity;BMP_temperature;BMP_pressure;BME280_temperature;BME280_humidity;BME280_pressure;Samples;Min_cycle;Max_cycle;Signal;HPM_P1;HPM_P2
2022/01/10 00:00:39;;;;;;;9.95;4.93;;;-1.40;99.90;;;;;;5054210;28;20028;-71
2022/01/10 00:03:07;;;;;;;9.45;4.93;;;-1.40;99.90;;;;;;5053679;28;20036;-71
2022/01/10 00:05:33;;;;;;;11.65;5.50;;;-1.40;99.90;;;;;;5053514;28;20032;-71
2022/01/10 00:08:02;;;;;;;9.63;4.75;;;-1.50;99.90;;;;;;5053617;28;20025;-71
2022/01/10 00:10:28;;;;;;;6.93;4.20;;;-1.40;99.90;;;;;;5053960;28;20017;-71
2022/01/10 00:12:53;;;;;;;9.05;4.53;;;-1.50;99.90;;;;;;5053570;28;20389;-71
2022/01/10 00:15:19;;;;;;;7.75;4.45;;;-1.40;99.90;;;;;;5053855;28;20017;-71
2022/01/10 00:17:46;;;;;;;6.60;4.30;;;-1.50;99.90;;;;;;5053549;28;20052;-71
2022/01/10 00:20:17;;;;;;;9.30;4.43;;;-1.50;99.90;;;;;;5052299;28;20025;-71
2022/01/10 00:22:49;;;;;;;8.93;4.80;;;-1.50;99.90;;;;;;5053455;28;20044;-71
2022/01/10 00:25:18;;;;;;;9.93;4.55;;;-1.50;99.90;;;;;;5053417;28;20452;-71
2022/01/10 00:27:45;;;;;;;8.70;4.75;;;-1.50;99.90;;;;;;5053325;28;20028;-71
2022/01/10 00:30:12;;;;;;;9.38;4.85;;;-1.50;99.90;;;;;;5053700;28;20108;-71
2022/01/10 00:32:40;;;;;;;7.22;4.15;;;-1.50;99.90;;;;;;5053258;28;20028;-71
2022/01/10 00:35:06;;;;;;;7.38;4.03;;;-1.50;99.90;;;;;;5051839;28;20025;-71
2022/01/10 00:37:33;;;;;;;10.00;4.55;;;-1.50;99.90;;;;;;5053302;28;20416;-71
2022/01/10 00:39:59;;;;;;;6.50;3.85;;;-1.50;99.90;;;;;;5053264;28;20032;-71
2022/01/10 00:42:24;;;;;;;7.55;3.42;;;-1.50;99.90;;;;;;5052112;28;20028;-71
2022/01/10 00:44:52;;;;;;;6.53;3.70;;;-1.50;99.90;;;;;;5051909;28;20116;-71
2022/01/10 00:47:18;;;;;;;5.93;3.67;;;-1.50;99.90;;;;;;5053083;28;20028;-71
2022/01/10 00:49:45;;;;;;;5.40;3.10;;;-1.50;99.90;;;;;;5053347;28;20052;-71
2022/01/10 00:52:11;;;;;;;5.20;3.17;;;-1.50;99.90;;;;;;5052742;28;20031;-71
2022/01/10 00:54:37;;;;;;;5.60;2.97;;;-1.50;99.90;;;;;;5053355;28;20108;-71
2022/01/10 00:57:03;;;;;;;5.65;2.95;;;-1.50;99.90;;;;;;5053221;28;20419;-71
2022/01/10 00:59:30;;;;;;;5.30;2.90;;;-1.50;99.90;;;;;;5053204;28;20027;-71
2022/01/10 01:01:56;;;;;;;5.63;3.22;;;-1.50;99.90;;;;;;5053327;28;20021;-71
2022/01/10 01:04:22;;;;;;;6.05;3.40;;;-1.50;99.90;;;;;;5053175;28;20029;-71
2022/01/10 01:06:48;;;;;;;6.43;3.30;;;-1.50;99.90;;;;;;5052827;28;20092;-71
2022/01/10 01:09:18;;;;;;;8.27;4.20;;;-1.40;99.90;;;;;;5053390;28;20466;-71
2022/01/10 01:20:29;;;;;;;7.95;4.07;;;-1.50;99.90;;;;;;5020890;28;20037;-71
2022/01/10 01:25:39;;;;;;;7.63;3.83;;;-1.50;99.90;;;;;;5053250;28;20072;-71
2022/01/10 01:28:05;;;;;;;6.25;3.42;;;-1.50;99.90;;;;;;5052910;28;20485;-71
2022/01/10 01:30:31;;;;;;;6.07;3.50;;;-1.50;99.90;;;;;;5053210;28;20028;-71
2022/01/10 01:32:58;;;;;;;6.30;3.80;;;-1.50;99.90;;;;;;5056206;28;20116;-71
2022/01/10 01:35:25;;;;;;;8.45;4.13;;;-1.50;99.90;;;;;;5057014;28;20021;-71
2022/01/10 01:37:51;;;;;;;8.25;3.58;;;-1.50;99.90;;;;;;5056728;28;20107;-71
2022/01/10 01:40:19;;;;;;;6.78;4.25;;;-1.50;99.90;;;;;;5056699;28;20021;-71
2022/01/10 01:42:45;;;;;;;6.38;4.22;;;-1.50;99.90;;;;;;5056890;28;20032;-71
2022/01/10 01:45:12;;;;;;;6.60;3.83;;;-1.50;99.90;;;;;;5056935;28;20029;-71
2022/01/10 01:47:39;;;;;;;7.60;4.30;;;-1.50;99.90;;;;;;5056493;28;20150;-71
2022/01/10 01:50:07;;;;;;;8.75;4.20;;;-1.50;99.90;;;;;;5065328;28;20028;-71
2022/01/10 01:52:33;;;;;;;8.65;4.05;;;-1.40;99.90;;;;;;5075075;28;20049;-71
2022/01/10 01:54:59;;;;;;;6.40;3.63;;;-1.40;99.90;;;;;;5076728;28;20028;-71
2022/01/10 01:57:26;;;;;;;7.32;4.28;;;-1.40;99.90;;;;;;5076359;28;20028;-71
2022/01/10 01:59:53;;;;;;;5.88;3.63;;;-1.40;99.90;;;;;;5076368;28;20028;-71
2022/01/10 02:02:19;;;;;;;6.65;3.92;;;-1.40;99.90;;;;;;5076213;28;20028;-71
2022/01/10 02:04:44;;;;;;;6.00;3.92;;;-1.40;99.90;;;;;;5076269;28;20146;-71
2022/01/10 02:07:10;;;;;;;8.25;4.13;;;-1.40;99.90;;;;;;5075886;28;20108;-71
2022/01/10 02:09:36;;;;;;;8.35;4.00;;;-1.30;99.90;;;;;;5076204;28;20028;-71
2022/01/10 02:12:02;;;;;;;6.88;3.75;;;-1.30;99.90;;;;;;5076051;28;20020;-71
2022/01/10 02:14:28;;;;;;;7.63;3.92;;;-1.30;99.90;;;;;;5074862;28;20021;-71
2022/01/10 02:16:55;;;;;;;5.65;3.45;;;-1.30;99.90;;;;;;5076604;28;20479;-71
2022/01/10 02:19:25;;;;;;;9.02;4.30;;;-1.30;99.90;;;;;;5076263;28;20024;-71
2022/01/10 02:21:51;;;;;;;6.35;4.35;;;-1.30;99.90;;;;;;5075702;28;20020;-71
2022/01/10 02:24:17;;;;;;;7.60;4.30;;;-1.40;99.90;;;;;;5075811;28;20039;-71
2022/01/10 02:26:50;;;;;;;7.07;3.72;;;-1.40;99.90;;;;;;5075784;28;20389;-71
2022/01/10 02:29:16;;;;;;;4.85;3.30;;;-1.40;99.90;;;;;;5075852;28;20031;-71
2022/01/10 02:31:43;;;;;;;7.63;4.10;;;-1.40;99.90;;;;;;5075708;28;20052;-71
2022/01/10 02:34:09;;;;;;;7.57;4.13;;;-1.40;99.90;;;;;;5075727;28;20388;-71
2022/01/10 02:36:36;;;;;;;8.60;4.20;;;-1.40;99.90;;;;;;5075512;28;20023;-71
2022/01/10 02:39:09;;;;;;;8.35;4.40;;;-1.40;99.90;;;;;;5075685;28;20024;-71
2022/01/10 02:41:37;;;;;;;7.85;4.38;;;-1.40;99.90;;;;;;5074302;28;20477;-71
2022/01/10 02:44:10;;;;;;;7.15;4.30;;;-1.40;99.90;;;;;;5074532;28;20542;-71
2022/01/10 02:46:37;;;;;;;7.53;4.43;;;-1.40;99.90;;;;;;5075455;28;20032;-71
2022/01/10 02:49:09;;;;;;;7.03;4.40;;;-1.40;99.90;;;;;;5075407;28;20389;-71
2022/01/10 02:51:35;;;;;;;8.00;4.60;;;-1.40;99.90;;;;;;5075200;28;20021;-71
2022/01/10 02:54:01;;;;;;;10.18;4.57;;;-1.40;99.90;;;;;;5075684;28;20358;-71
2022/01/10 02:56:27;;;;;;;8.00;4.63;;;-1.40;99.90;;;;;;5075330;28;20484;-71
2022/01/10 02:58:52;;;;;;;8.40;4.40;;;-1.40;99.90;;;;;;5075546;28;20055;-71
2022/01/10 03:01:18;;;;;;;8.57;5.03;;;-1.40;99.90;;;;;;5075414;28;20055;-71
2022/01/10 03:03:44;;;;;;;8.68;4.75;;;-1.40;99.90;;;;;;5075184;28;20017;-71
2022/01/10 03:06:11;;;;;;;8.88;5.05;;;-1.40;99.90;;;;;;5075008;28;20074;-71
2022/01/10 03:08:37;;;;;;;8.00;4.60;;;-1.40;99.90;;;;;;5075031;28;20020;-71
2022/01/10 03:11:03;;;;;;;8.85;5.13;;;-1.40;99.90;;;;;;5075286;28;20538;-71
2022/01/10 03:13:28;;;;;;;8.93;4.90;;;-1.40;99.90;;;;;;5075190;28;20024;-71
2022/01/10 03:15:54;;;;;;;7.45;4.90;;;-1.40;99.90;;;;;;5075194;28;20028;-71
2022/01/10 03:18:20;;;;;;;8.43;4.97;;;-1.40;99.90;;;;;;5074866;28;20046;-71
2022/01/10 03:20:46;;;;;;;7.97;4.50;;;-1.40;99.90;;;;;;5074524;28;20047;-71
2022/01/10 03:23:11;;;;;;;7.32;4.40;;;-1.40;99.90;;;;;;5074785;28;20477;-71
2022/01/10 03:25:37;;;;;;;8.55;4.50;;;-1.40;99.90;;;;;;5075195;28;20033;-71
2022/01/10 03:28:04;;;;;;;9.75;4.97;;;-1.40;99.90;;;;;;5074601;28;20485;-71
2022/01/10 03:30:30;;;;;;;7.57;4.70;;;-1.40;99.90;;;;;;5074641;28;20032;-71
2022/01/10 03:32:58;;;;;;;8.98;4.95;;;-1.40;99.90;;;;;;5074903;28;20024;-71
2022/01/10 03:35:25;;;;;;;11.63;5.10;;;-1.40;99.90;;;;;;5074287;28;20046;-71
2022/01/10 03:37:51;;;;;;;10.05;4.68;;;-1.40;99.90;;;;;;5074512;28;20029;-71
2022/01/10 03:40:17;;;;;;;8.02;4.88;;;-1.40;99.90;;;;;;5074757;28;20045;-71
2022/01/10 03:42:42;;;;;;;9.27;4.85;;;-1.40;99.90;;;;;;5074340;28;20060;-71
2022/01/10 03:45:08;;;;;;;8.85;5.07;;;-1.40;99.90;;;;;;5074410;28;20048;-71
2022/01/10 03:47:34;;;;;;;8.80;5.00;;;-1.40;99.90;;;;;;5074777;28;20074;-71
2022/01/10 03:50:00;;;;;;;8.77;4.82;;;-1.40;99.90;;;;;;5074595;28;20404;-71
2022/01/10 03:52:27;;;;;;;11.10;5.43;;;-1.40;99.90;;;;;;5074015;28;20071;-71
2022/01/10 03:54:54;;;;;;;11.27;5.97;;;-1.40;99.90;;;;;;5072751;28;20052;-71
2022/01/10 03:57:19;;;;;;;10.52;5.13;;;-1.40;99.90;;;;;;5074114;28;20063;-71
2022/01/10 03:59:45;;;;;;;9.18;5.38;;;-1.40;99.90;;;;;;5074114;28;20048;-71
2022/01/10 04:02:11;;;;;;;8.88;5.43;;;-1.40;99.90;;;;;;5074253;28;20115;-71
2022/01/10 04:04:38;;;;;;;10.43;5.32;;;-1.40;99.90;;;;;;5072685;28;20028;-71
2022/01/10 04:07:05;;;;;;;10.48;5.50;;;-1.40;99.90;;;;;;5073579;28;20031;-71
2022/01/10 04:09:31;;;;;;;8.48;5.32;;;-1.40;99.90;;;;;;5074195;28;20023;-71
2022/01/10 04:11:57;;;;;;;9.30;5.57;;;-1.40;99.90;;;;;;5073796;28;20025;-71
2022/01/10 04:14:22;;;;;;;9.00;5.13;;;-1.40;99.90;;;;;;5073824;28;20093;-71
2022/01/10 04:16:48;;;;;;;7.47;4.60;;;-1.40;99.90;;;;;;5074055;28;20024;-71
2022/01/10 04:19:14;;;;;;;7.88;4.55;;;-1.40;99.90;;;;;;5073993;28;20025;-71
2022/01/10 04:21:39;;;;;;;10.65;4.63;;;-1.40;99.90;;;;;;5073549;28;20024;-71
2022/01/10 04:24:05;;;;;;;12.63;5.38;;;-1.40;99.90;;;;;;5073763;28;20040;-71
2022/01/10 04:26:31;;;;;;;10.05;5.63;;;-1.40;99.90;;;;;;5073547;28;20032;-71
2022/01/10 04:28:57;;;;;;;11.50;6.65;;;-1.30;99.90;;;;;;5073666;28;20017;-71
2022/01/10 04:31:22;;;;;;;16.65;8.77;;;-1.30;99.90;;;;;;5073794;28;20035;-71
2022/01/10 04:33:48;;;;;;;18.83;10.75;;;-1.40;99.90;;;;;;5073608;28;20358;-71
2022/01/10 04:36:14;;;;;;;27.60;13.07;;;-1.40;99.90;;;;;;5073504;28;20095;-71
2022/01/10 04:38:42;;;;;;;25.13;12.73;;;-1.40;99.90;;;;;;5073815;28;20024;-71
2022/01/10 04:41:09;;;;;;;20.67;11.50;;;-1.50;99.90;;;;;;5073508;28;20017;-71
2022/01/10 04:43:35;;;;;;;21.83;10.75;;;-1.50;99.90;;;;;;5073360;28;20062;-71
2022/01/10 04:46:01;;;;;;;18.70;8.93;;;-1.50;99.90;;;;;;5073399;28;20063;-71
2022/01/10 04:48:27;;;;;;;14.38;7.07;;;-1.50;99.90;;;;;;5073303;28;20075;-71
2022/01/10 04:53:33;;;;;;;11.52;7.00;;;-1.50;99.90;;;;;;5073608;28;20461;-71
2022/01/10 04:55:59;;;;;;;22.35;10.35;;;-1.50;99.90;;;;;;5073795;28;20036;-71
2022/01/10 04:58:25;;;;;;;14.73;7.95;;;-1.50;99.90;;;;;;5073551;28;20033;-71
2022/01/10 05:00:55;;;;;;;15.27;7.10;;;-1.40;99.90;;;;;;5073818;28;20054;-71
2022/01/10 05:03:21;;;;;;;12.38;6.25;;;-1.40;99.90;;;;;;5073753;28;20432;-71
2022/01/10 05:05:52;;;;;;;11.75;6.80;;;-1.40;99.90;;;;;;5073005;28;20035;-72
2022/01/10 05:08:19;;;;;;;18.38;8.13;;;-1.40;99.90;;;;;;5075980;28;20031;-71
2022/01/10 05:10:45;;;;;;;16.92;8.77;;;-1.40;99.90;;;;;;5076127;28;20024;-71
2022/01/10 05:13:10;;;;;;;12.55;7.95;;;-1.50;99.90;;;;;;5077307;28;20542;-71
2022/01/10 05:15:37;;;;;;;15.30;8.82;;;-1.50;99.90;;;;;;5075956;28;20021;-71
2022/01/10 05:18:02;;;;;;;16.85;9.40;;;-1.50;99.90;;;;;;5077510;28;20423;-71
2022/01/10 05:20:28;;;;;;;14.52;7.55;;;-1.50;99.90;;;;;;5075750;28;20107;-72
2022/01/10 05:22:54;;;;;;;14.38;6.97;;;-1.50;99.90;;;;;;5057209;28;20059;-72
2022/01/10 05:25:20;;;;;;;11.80;6.60;;;-1.50;99.90;;;;;;5056809;28;20048;-72
2022/01/10 05:27:45;;;;;;;13.57;7.70;;;-1.50;99.90;;;;;;5057239;28;20444;-72
2022/01/10 05:30:11;;;;;;;14.35;7.72;;;-1.50;99.90;;;;;;5057067;28;20021;-72
2022/01/10 05:32:37;;;;;;;16.35;9.13;;;-1.50;99.90;;;;;;5057257;28;20025;-72
2022/01/10 05:35:03;;;;;;;67.38;28.58;;;-1.50;99.90;;;;;;5058976;28;20029;-71
2022/01/10 05:37:29;;;;;;;51.42;24.10;;;-1.50;99.90;;;;;;5076630;28;20021;-71
2022/01/10 05:39:55;;;;;;;41.00;18.35;;;-1.40;99.90;;;;;;5076734;28;20031;-69
2022/01/10 05:42:21;;;;;;;32.60;15.50;;;-1.40;99.90;;;;;;5075699;28;20063;-71
2022/01/10 05:44:46;;;;;;;32.83;16.85;;;-1.50;99.90;;;;;;5074596;28;20048;-71
2022/01/10 05:47:12;;;;;;;34.70;17.63;;;-1.50;99.90;;;;;;5074904;28;20565;-71
2022/01/10 05:49:45;;;;;;;27.85;14.35;;;-1.50;99.90;;;;;;5069581;28;20021;-71
2022/01/10 05:52:11;;;;;;;22.52;10.90;;;-1.40;99.90;;;;;;5055018;28;20017;-71
2022/01/10 05:54:36;;;;;;;19.23;10.68;;;-1.40;99.90;;;;;;5056454;28;20031;-71
2022/01/10 05:57:03;;;;;;;18.17;10.32;;;-1.40;99.90;;;;;;5055058;28;20038;-71
2022/01/10 05:59:31;;;;;;;19.33;9.93;;;-1.40;99.90;;;;;;5056357;28;20025;-71
2022/01/10 06:01:57;;;;;;;18.65;9.50;;;-1.40;99.90;;;;;;5056279;28;20112;-71
2022/01/10 06:04:23;;;;;;;22.48;10.57;;;-1.40;99.90;;;;;;5056314;28;20032;-71
2022/01/10 06:06:48;;;;;;;18.08;9.98;;;-1.40;99.90;;;;;;5056000;28;20025;-71
2022/01/10 06:09:14;;;;;;;16.83;8.73;;;-1.40;99.90;;;;;;5056493;28;20023;-71
2022/01/10 06:11:40;;;;;;;20.23;9.57;;;-1.40;99.90;;;;;;5056135;28;20021;-71
2022/01/10 06:14:07;;;;;;;20.27;8.75;;;-1.40;99.90;;;;;;5054863;28;20043;-71
2022/01/10 06:16:33;;;;;;;18.73;8.32;;;-1.40;99.90;;;;;;5056202;28;20021;-71
2022/01/10 06:18:59;;;;;;;17.15;8.85;;;-1.50;99.90;;;;;;5056072;28;20355;-71
2022/01/10 06:21:25;;;;;;;21.83;10.45;;;-1.50;99.90;;;;;;5055916;28;20029;-71
2022/01/10 06:23:50;;;;;;;22.75;11.32;;;-1.50;99.90;;;;;;5056014;28;20025;-71
2022/01/10 06:26:16;;;;;;;18.60;10.57;;;-1.50;99.90;;;;;;5055871;28;20024;-71
2022/01/10 06:28:42;;;;;;;19.77;10.85;;;-1.50;99.90;;;;;;5055782;28;20082;-71
2022/01/10 06:31:07;;;;;;;18.52;9.90;;;-1.50;99.90;;;;;;5054581;28;20043;-71
2022/01/10 06:33:33;;;;;;;20.92;10.00;;;-1.50;99.90;;;;;;5055692;28;20028;-71
2022/01/10 06:35:58;;;;;;;20.02;9.05;;;-1.50;99.90;;;;;;5055992;28;20017;-71
2022/01/10 06:38:24;;;;;;;19.95;10.13;;;-1.50;99.90;;;;;;5056024;28;20036;-71
2022/01/10 06:40:50;;;;;;;17.33;9.05;;;-1.50;99.90;;;;;;5055607;28;20021;-71
2022/01/10 06:43:15;;;;;;;17.17;8.43;;;-1.60;99.90;;;;;;5055508;28;20029;-71
2022/01/10 06:45:41;;;;;;;16.52;8.48;;;-1.60;99.90;;;;;;5055799;28;20022;-71
2022/01/10 06:48:07;;;;;;;13.05;7.65;;;-1.60;99.90;;;;;;5055411;28;20032;-71
2022/01/10 06:50:32;;;;;;;16.83;9.25;;;-1.60;99.90;;;;;;5055405;28;20059;-71
2022/01/10 06:52:58;;;;;;;13.95;7.28;;;-1.50;99.90;;;;;;5055907;28;20532;-71
2022/01/10 06:55:24;;;;;;;16.08;7.90;;;-1.60;99.90;;;;;;5055618;28;20070;-71
2022/01/10 06:57:50;;;;;;;14.48;8.68;;;-1.60;99.90;;;;;;5054042;28;20053;-71
2022/01/10 07:00:16;;;;;;;15.15;8.20;;;-1.60;99.90;;;;;;5055287;28;20029;-71
2022/01/10 07:02:43;;;;;;;17.88;8.88;;;-1.60;99.90;;;;;;5055462;28;20091;-71
2022/01/10 07:05:09;;;;;;;17.38;10.18;;;-1.60;99.90;;;;;;5055209;28;20017;-71
2022/01/10 07:07:35;;;;;;;19.20;9.85;;;-1.60;99.90;;;;;;5054897;28;20051;-71
2022/01/10 07:10:01;;;;;;;21.98;10.45;;;-1.50;99.90;;;;;;5055052;28;20074;-71
2022/01/10 07:12:26;;;;;;;29.13;12.57;;;-1.50;99.90;;;;;;5054965;28;20422;-71
2022/01/10 07:14:52;;;;;;;24.42;12.10;;;-1.50;99.90;;;;;;5055609;28;20025;-71
2022/01/10 07:17:18;;;;;;;26.50;12.38;;;-1.50;99.90;;;;;;5054958;28;20017;-71
2022/01/10 07:19:44;;;;;;;35.40;14.13;;;-1.50;99.90;;;;;;5054859;28;20029;-71
2022/01/10 07:22:09;;;;;;;28.08;13.65;;;-1.50;99.90;;;;;;5054537;28;20029;-71
2022/01/10 07:24:37;;;;;;;33.92;14.27;;;-1.50;99.90;;;;;;5054714;28;20028;-71
2022/01/10 07:27:03;;;;;;;20.00;11.13;;;-1.50;99.90;;;;;;5054965;28;20031;-71
2022/01/10 07:29:29;;;;;;;21.52;10.25;;;-1.40;99.90;;;;;;5054442;28;20059;-71
2022/01/10 07:31:54;;;;;;;20.02;10.50;;;-1.40;99.90;;;;;;5054601;28;20022;-71
2022/01/10 07:34:20;;;;;;;18.85;10.40;;;-1.50;99.90;;;;;;5054615;28;20028;-71
2022/01/10 07:36:46;;;;;;;21.35;10.98;;;-1.40;99.90;;;;;;5054511;28;20032;-71
2022/01/10 07:39:12;;;;;;;21.77;12.45;;;-1.40;99.90;;;;;;5054544;28;20450;-71
2022/01/10 07:41:38;;;;;;;30.98;15.68;;;-1.40;99.90;;;;;;5054415;28;20056;-71
2022/01/10 07:44:04;;;;;;;28.95;14.90;;;-1.40;99.90;;;;;;5054416;28;20021;-71
2022/01/10 07:46:29;;;;;;;23.13;11.93;;;-1.40;99.90;;;;;;5054241;28;20025;-70
2022/01/10 07:48:55;;;;;;;25.15;13.55;;;-1.30;99.90;;;;;;5054309;28;20029;-71
2022/01/10 07:51:26;;;;;;;21.45;11.88;;;-1.30;99.90;;;;;;5053915;28;20359;-71
2022/01/10 07:53:52;;;;;;;22.80;12.05;;;-1.30;99.90;;;;;;5054206;28;20021;-71
2022/01/10 07:56:18;;;;;;;24.13;12.90;;;-1.30;99.90;;;;;;5054483;28;20457;-71
2022/01/10 07:58:48;;;;;;;21.52;11.55;;;-1.30;99.90;;;;;;5054446;28;20025;-71
2022/01/10 08:01:13;;;;;;;24.48;12.23;;;-1.30;99.90;;;;;;5054406;28;20035;-71
2022/01/10 08:03:39;;;;;;;23.02;13.07;;;-1.20;99.90;;;;;;5054106;28;20029;-71
2022/01/10 08:06:05;;;;;;;27.05;13.82;;;-1.20;99.90;;;;;;5054296;28;20473;-71
2022/01/10 08:08:30;;;;;;;25.70;13.20;;;-1.20;99.90;;;;;;5052457;28;20078;-71
2022/01/10 08:10:56;;;;;;;26.15;14.82;;;-1.20;99.90;;;;;;5054185;28;20489;-71
2022/01/10 08:13:23;;;;;;;32.92;18.05;;;-1.20;99.90;;;;;;5053889;28;20017;-71
2022/01/10 08:15:49;;;;;;;32.42;17.02;;;-1.10;99.90;;;;;;5053837;28;20017;-71
2022/01/10 08:18:15;;;;;;;28.88;16.48;;;-1.10;99.90;;;;;;5054053;28;20025;-71
2022/01/10 08:20:41;;;;;;;27.25;15.00;;;-1.10;99.90;;;;;;5052415;28;20473;-71
2022/01/10 08:23:07;;;;;;;26.70;14.95;;;-1.00;99.90;;;;;;5053273;28;20035;-71
2022/01/10 08:25:33;;;;;;;25.50;13.10;;;-0.90;99.90;;;;;;5053708;28;20040;-71
2022/01/10 08:27:58;;;;;;;24.05;13.13;;;-0.80;99.90;;;;;;5053596;28;20505;-71
2022/01/10 08:30:25;;;;;;;22.40;13.18;;;-0.80;99.90;;;;;;5053660;28;20053;-71
2022/01/10 08:32:50;;;;;;;24.92;12.35;;;-0.80;99.90;;;;;;5053502;28;20021;-71
2022/01/10 08:35:18;;;;;;;27.58;13.00;;;-0.80;99.90;;;;;;5053544;28;20060;-71
2022/01/10 08:37:44;;;;;;;24.08;12.15;;;-0.80;99.90;;;;;;5053259;28;20035;-71
2022/01/10 08:40:11;;;;;;;27.27;19.83;;;-0.80;99.90;;;;;;5053793;28;20116;-71
2022/01/10 08:42:37;;;;;;;27.42;17.65;;;-0.80;99.90;;;;;;5052737;28;20104;-71
2022/01/10 08:45:04;;;;;;;24.45;15.48;;;-0.80;99.90;;;;;;5053355;28;20029;-70
2022/01/10 08:47:30;;;;;;;25.33;13.70;;;-0.80;99.90;;;;;;5053492;28;20025;-70
2022/01/10 08:49:56;;;;;;;22.27;13.05;;;-0.80;99.90;;;;;;5052096;28;20025;-70
2022/01/10 08:52:22;;;;;;;30.15;14.75;;;-0.80;99.90;;;;;;5053001;28;20501;-70
2022/01/10 08:54:49;;;;;;;28.80;15.20;;;-0.80;99.90;;;;;;5053315;28;20025;-70
2022/01/10 08:57:15;;;;;;;30.42;15.05;;;-0.70;99.90;;;;;;5052023;28;20029;-70
2022/01/10 08:59:41;;;;;;;26.55;14.02;;;-0.70;99.90;;;;;;5051977;28;20036;-70
2022/01/10 09:02:07;;;;;;;26.08;13.38;;;-0.60;99.90;;;;;;5053507;28;20029;-70
2022/01/10 09:04:33;;;;;;;24.80;12.43;;;-0.50;99.90;;;;;;5053193;28;20095;-70
2022/01/10 09:07:00;;;;;;;27.45;13.68;;;-0.40;99.90;;;;;;5053312;28;20055;-70
2022/01/10 09:09:26;;;;;;;22.05;11.75;;;-0.30;99.90;;;;;;5053146;28;20535;-70
2022/01/10 09:11:52;;;;;;;24.92;12.63;;;-0.20;99.90;;;;;;5051773;28;20025;-70
2022/01/10 09:14:18;;;;;;;23.73;12.45;;;-0.10;99.90;;;;;;5053086;28;20025;-70
2022/01/10 09:16:43;;;;;;;21.90;12.30;;;0.10;99.90;;;;;;5053087;28;20580;-70
2022/01/10 09:19:09;;;;;;;23.50;12.55;;;0.10;99.90;;;;;;5053045;28;20021;-70
2022/01/10 09:21:35;;;;;;;21.30;12.35;;;0.20;99.90;;;;;;5052775;28;20052;-71
2022/01/10 09:24:02;;;;;;;26.58;11.85;;;0.30;99.90;;;;;;5051681;28;20044;-70
2022/01/10 09:26:28;;;;;;;24.77;11.90;;;0.30;99.90;;;;;;5052910;28;20060;-70
2022/01/10 09:28:54;;;;;;;21.58;11.40;;;0.30;99.90;;;;;;5053253;28;20056;-70
2022/01/10 09:31:22;;;;;;;24.95;12.68;;;0.30;99.90;;;;;;5052853;28;20119;-70
2022/01/10 09:33:53;;;;;;;22.90;12.32;;;0.40;99.90;;;;;;5052954;28;20021;-70
2022/01/10 09:36:19;;;;;;;20.45;12.35;;;0.40;99.90;;;;;;5053167;28;20021;-70
2022/01/10 09:38:45;;;;;;;25.25;13.48;;;0.50;99.90;;;;;;5052653;28;20112;-70
2022/01/10 09:41:11;;;;;;;24.48;13.23;;;0.60;99.90;;;;;;5051572;28;20111;-70
2022/01/10 09:43:37;;;;;;;22.40;13.18;;;0.60;99.90;;;;;;5053022;28;20469;-70
2022/01/10 09:46:03;;;;;;;22.67;12.52;;;0.70;99.90;;;;;;5052769;28;20028;-70
2022/01/10 09:48:29;;;;;;;23.70;12.68;;;0.70;99.90;;;;;;5053007;28;20380;-70
2022/01/10 09:50:54;;;;;;;20.73;12.10;;;0.70;99.90;;;;;;5052782;28;20103;-70
2022/01/10 09:53:21;;;;;;;25.92;12.82;;;0.80;99.90;;;;;;5054670;28;20021;-70
2022/01/10 09:55:48;;;;;;;22.08;13.20;;;0.80;99.90;;;;;;5056518;28;20048;-70
2022/01/10 09:58:14;;;;;;;23.52;13.10;;;0.90;99.90;;;;;;5056738;28;20079;-70
2022/01/10 10:00:40;;;;;;;21.98;12.13;;;0.90;99.90;;;;;;5056376;28;20029;-70
2022/01/10 10:03:07;;;;;;;23.02;13.13;;;1.00;99.90;;;;;;5056317;28;20028;-70
2022/01/10 10:05:34;;;;;;;21.75;12.38;;;1.00;99.90;;;;;;5056860;28;20029;-70
2022/01/10 10:08:00;;;;;;;25.13;13.55;;;1.10;99.90;;;;;;5055941;28;20075;-70
2022/01/10 10:10:28;;;;;;;26.30;13.90;;;1.20;99.90;;;;;;5056255;28;20424;-70
2022/01/10 10:12:54;;;;;;;26.35;14.07;;;1.30;99.90;;;;;;5056209;28;20587;-70
2022/01/10 10:15:26;;;;;;;22.23;12.52;;;1.40;99.90;;;;;;5054917;28;20029;-70
2022/01/10 10:17:52;;;;;;;24.55;13.10;;;1.50;99.90;;;;;;5054858;28;20033;-70
2022/01/10 10:20:21;;;;;;;20.95;11.70;;;1.50;99.90;;;;;;5056093;28;20100;-70
2022/01/10 10:22:50;;;;;;;24.52;12.27;;;1.50;99.90;;;;;;5055700;28;20025;-70
2022/01/10 10:25:16;;;;;;;21.23;12.20;;;1.40;99.90;;;;;;5055709;28;20037;-70
2022/01/10 10:27:45;;;;;;;25.63;12.77;;;1.30;99.90;;;;;;5055624;28;20033;-70
2022/01/10 10:30:12;;;;;;;21.67;11.90;;;1.30;99.90;;;;;;5056317;28;20021;-69
2022/01/10 10:32:38;;;;;;;26.92;13.27;;;1.20;99.90;;;;;;5056029;28;20100;-69
2022/01/10 10:35:06;;;;;;;26.48;13.32;;;1.20;99.90;;;;;;5055779;28;20096;-69
2022/01/10 10:37:37;;;;;;;23.77;12.35;;;1.10;99.90;;;;;;5055396;28;20104;-69
2022/01/10 10:40:06;;;;;;;22.73;12.60;;;1.10;99.90;;;;;;5056064;28;20056;-70
2022/01/10 10:42:33;;;;;;;27.73;15.10;;;1.10;99.90;;;;;;5055638;28;20032;-70
2022/01/10 10:45:02;;;;;;;29.63;13.85;;;1.20;99.90;;;;;;5056161;28;20432;-70
2022/01/10 10:47:28;;;;;;;27.77;12.50;;;1.20;99.90;;;;;;5055509;28;20025;-70
2022/01/10 10:49:58;;;;;;;29.25;14.90;;;1.10;99.90;;;;;;5055466;28;20021;-70
2022/01/10 10:52:31;;;;;;;30.73;15.47;;;1.10;99.90;;;;;;5055165;28;20021;-70
2022/01/10 10:55:02;;;;;;;57.08;24.27;;;1.00;99.90;;;;;;5055718;28;20381;-70
2022/01/10 10:57:28;;;;;;;38.17;17.92;;;1.00;99.90;;;;;;5055665;28;20473;-69
2022/01/10 10:59:54;;;;;;;26.25;12.80;;;1.00;99.90;;;;;;5055323;28;20060;-70
2022/01/10 11:02:21;;;;;;;19.75;9.80;;;1.10;99.90;;;;;;5055419;28;20028;-70
2022/01/10 11:04:47;;;;;;;18.95;10.18;;;1.10;99.90;;;;;;5054390;28;20025;-70
2022/01/10 11:07:13;;;;;;;20.08;9.65;;;1.10;99.90;;;;;;5053626;28;20370;-70
2022/01/10 11:09:40;;;;;;;33.03;20.05;;;1.20;99.90;;;;;;5055219;28;20020;-70
2022/01/10 11:12:06;;;;;;;27.27;16.50;;;1.30;99.90;;;;;;5055387;28;20377;-70
2022/01/10 11:14:32;;;;;;;26.55;15.82;;;1.50;99.90;;;;;;5055098;28;20103;-69
2022/01/10 11:16:58;;;;;;;23.15;13.82;;;1.50;99.90;;;;;;5054973;28;20075;-70
2022/01/10 11:19:26;;;;;;;23.50;12.77;;;1.60;99.90;;;;;;5053684;28;20025;-70
2022/01/10 11:22:03;;;;;;;24.15;12.52;;;1.60;99.90;;;;;;5054976;28;20017;-70
2022/01/10 11:24:46;;;;;;;24.08;13.27;;;1.50;99.90;;;;;;5054903;28;20107;-70
2022/01/10 11:27:31;;;;;;;21.65;12.60;;;1.50;99.90;;;;;;5055316;28;20021;-69
2022/01/10 11:29:58;;;;;;;23.90;13.35;;;1.50;99.90;;;;;;5054708;28;20075;-70
2022/01/10 11:33:01;;;;;;;20.20;9.40;;;1.50;99.90;;;;;;5054883;28;20017;-69
2022/01/10 11:35:33;;;;;;;13.05;7.07;;;1.60;99.90;;;;;;5054930;28;20346;-69
2022/01/10 11:37:59;;;;;;;10.60;6.07;;;1.50;99.90;;;;;;5054342;28;20056;-69
2022/01/10 11:40:25;;;;;;;10.13;5.53;;;1.50;99.90;;;;;;5054542;28;20029;-69
2022/01/10 11:42:57;;;;;;;13.95;7.78;;;1.50;99.90;;;;;;5054454;28;20021;-69
2022/01/10 11:45:26;;;;;;;15.13;7.97;;;1.40;99.90;;;;;;5054468;28;20090;-69
2022/01/10 11:48:07;;;;;;;11.90;6.05;;;1.50;99.90;;;;;;5054408;28;20017;-69
2022/01/10 11:50:33;;;;;;;14.00;7.05;;;1.60;99.90;;;;;;5054212;28;20028;-70
2022/01/10 11:53:03;;;;;;;11.57;5.85;;;1.70;99.90;;;;;;5054104;28;20082;-70
2022/01/10 11:55:52;;;;;;;11.85;6.03;;;1.80;99.90;;;;;;5054265;28;20047;-69
2022/01/10 11:58:23;;;;;;;8.35;5.10;;;1.90;99.90;;;;;;5054512;28;20021;-69
2022/01/10 12:00:51;;;;;;;8.90;4.93;;;1.90;99.90;;;;;;5054213;28;20045;-70
2022/01/10 12:03:20;;;;;;;8.80;4.97;;;2.00;99.90;;;;;;5054061;28;20033;-69
2022/01/10 12:05:45;;;;;;;5.30;3.28;;;2.00;99.90;;;;;;5054326;28;20032;-69
2022/01/10 12:08:11;;;;;;;9.00;3.80;;;2.00;99.90;;;;;;5053724;28;20021;-69
2022/01/10 12:10:37;;;;;;;8.25;3.95;;;1.90;99.90;;;;;;5054234;28;20051;-69
2022/01/10 12:13:09;;;;;;;6.68;3.33;;;1.90;99.90;;;;;;5053859;28;20025;-69
2022/01/10 12:15:36;;;;;;;6.90;2.60;;;1.90;99.90;;;;;;5053805;28;20043;-69
2022/01/10 12:18:03;;;;;;;4.68;2.72;;;1.80;99.90;;;;;;5053852;28;20051;-69
2022/01/10 12:20:29;;;;;;;5.00;2.85;;;1.80;99.90;;;;;;5053751;28;20508;-69
2022/01/10 12:22:56;;;;;;;17.90;7.20;;;1.70;99.90;;;;;;5053435;28;20029;-69
2022/01/10 12:25:23;;;;;;;30.80;12.15;;;1.70;99.90;;;;;;5053596;28;20040;-69
2022/01/10 12:27:51;;;;;;;24.42;10.27;;;1.80;99.90;;;;;;5054109;28;20029;-69
2022/01/10 12:30:18;;;;;;;14.55;7.57;;;1.80;99.90;;;;;;5053605;28;20017;-69
2022/01/10 12:32:45;;;;;;;59.28;19.67;;;1.80;99.90;;;;;;5053440;28;20396;-70
2022/01/10 12:35:11;;;;;;;181.75;71.78;;;1.80;99.90;;;;;;5053779;28;20017;-70
2022/01/10 12:37:38;;;;;;;108.78;48.58;;;1.90;99.90;;;;;;5053245;28;20061;-70
2022/01/10 12:40:05;;;;;;;40.33;18.83;;;1.90;99.90;;;;;;5057177;28;20072;-69
2022/01/10 12:42:31;;;;;;;26.83;14.85;;;1.90;99.90;;;;;;5065458;28;20028;-70
2022/01/10 12:44:57;;;;;;;16.83;9.20;;;1.90;99.90;;;;;;5053906;28;20017;-69
2022/01/10 12:47:24;;;;;;;15.73;8.70;;;1.90;99.90;;;;;;5069026;28;20082;-69
2022/01/10 12:49:51;;;;;;;16.42;8.90;;;1.90;99.90;;;;;;5058265;28;20043;-69